createdAt,value
2022-12-25T00:00:20.263Z,91.58
2022-12-25T00:05:22.255Z,91.46
2022-12-25T00:10:23.778Z,90.47
2022-12-25T00:15:25.150Z,89.79
2022-12-25T00:20:26.466Z,89.92
2022-12-25T00:25:27.843Z,90.75
2022-12-25T00:30:29.166Z,90.31
2022-12-25T00:35:30.500Z,89.37
2022-12-25T00:40:31.816Z,89.23
2022-12-25T00:45:33.162Z,88.54
2022-12-25T00:50:34.559Z,89.02
2022-12-25T00:55:35.965Z,88.60
2022-12-25T01:00:38.759Z,89.00
2022-12-25T01:05:40.085Z,89.13
2022-12-25T01:10:41.487Z,88.13
2022-12-25T01:15:42.784Z,87.92
2022-12-25T01:20:44.099Z,88.33
2022-12-25T01:25:45.456Z,88.38
2022-12-25T01:30:49.918Z,88.72
2022-12-25T01:35:51.273Z,88.08
2022-12-25T01:40:53.631Z,87.61
2022-12-25T01:45:55.027Z,87.50
2022-12-25T01:51:01.501Z,87.43
2022-12-25T01:56:05.661Z,87.73
2022-12-25T02:01:07.989Z,88.79
2022-12-25T02:06:09.458Z,88.83
2022-12-25T02:11:30.733Z,88.42
2022-12-25T02:16:35.353Z,87.80
2022-12-25T02:22:05.743Z,88.89
2022-12-25T02:27:11.617Z,88.55
2022-12-25T02:32:16.070Z,87.80
2022-12-25T02:37:23.358Z,87.91
2022-12-25T02:42:47.748Z,87.83
2022-12-25T02:48:07.978Z,87.80
2022-12-25T02:53:28.249Z,88.12
2022-12-25T02:58:49.162Z,88.19
2022-12-25T03:04:12.239Z,87.80
2022-12-25T03:09:36.988Z,87.69
2022-12-25T03:14:57.478Z,88.27
2022-12-25T03:20:22.758Z,88.33
2022-12-25T03:25:42.675Z,88.51
2022-12-25T03:31:11.850Z,88.70
2022-12-25T03:36:19.104Z,88.45
2022-12-25T03:41:39.242Z,88.20
2022-12-25T03:47:05.321Z,87.93
2022-12-25T03:52:26.648Z,87.36
2022-12-25T03:57:46.387Z,87.84
2022-12-25T04:03:06.665Z,86.76
2022-12-25T04:08:26.586Z,86.85
2022-12-25T04:13:46.461Z,87.24
2022-12-25T04:19:06.217Z,87.67
2022-12-25T04:24:26.246Z,87.58
2022-12-25T04:29:46.070Z,87.77
2022-12-25T04:35:06.225Z,88.17
2022-12-25T04:40:08.005Z,87.87
2022-12-25T04:45:09.622Z,87.38
2022-12-25T04:50:11.216Z,87.09
2022-12-25T04:55:12.555Z,87.05
2022-12-25T05:00:13.998Z,87.33
2022-12-25T05:05:15.401Z,87.54
2022-12-25T05:10:16.783Z,87.82
2022-12-25T05:15:18.222Z,87.78
2022-12-25T05:20:19.533Z,87.20
2022-12-25T05:25:20.873Z,87.30
2022-12-25T05:30:22.238Z,87.47
2022-12-25T05:35:23.597Z,87.53
2022-12-25T05:40:24.913Z,87.31
2022-12-25T05:45:26.325Z,87.37
2022-12-25T05:50:27.652Z,87.16
2022-12-25T05:55:39.749Z,87.16
2022-12-25T06:00:43.219Z,87.46
2022-12-25T06:05:44.641Z,87.33
2022-12-25T06:10:46.093Z,87.63
2022-12-25T06:15:47.410Z,87.65
2022-12-25T06:20:48.856Z,87.85
2022-12-25T06:25:50.186Z,88.34
2022-12-25T06:30:51.593Z,88.06
2022-12-25T06:35:52.929Z,88.05
2022-12-25T06:40:54.246Z,87.47
2022-12-25T06:45:55.577Z,87.64
2022-12-25T06:50:56.916Z,87.72
2022-12-25T06:56:05.577Z,87.84
2022-12-25T07:01:15.050Z,87.61
2022-12-25T07:06:16.667Z,88.24
2022-12-25T07:11:18.120Z,88.33
2022-12-25T07:16:20.095Z,88.72
2022-12-25T07:21:21.736Z,88.24
2022-12-25T07:26:23.050Z,88.64
2022-12-25T07:31:24.459Z,89.23
2022-12-25T07:36:25.860Z,89.14
2022-12-25T07:41:27.254Z,89.28
2022-12-25T07:46:47.604Z,89.71
2022-12-25T07:51:48.919Z,89.98
2022-12-25T07:56:51.833Z,89.47
2022-12-25T08:01:53.425Z,89.55
2022-12-25T08:06:55.000Z,89.50
2022-12-25T08:11:56.315Z,90.20
2022-12-25T08:22:55.966Z,90.80
2022-12-25T08:28:37.556Z,91.25
2022-12-25T08:33:38.968Z,91.98
2022-12-25T08:38:40.741Z,91.59
2022-12-25T08:43:42.228Z,92.13
2022-12-25T08:48:44.372Z,92.88
2022-12-25T08:53:47.060Z,93.58
2022-12-25T08:58:48.450Z,94.54
2022-12-25T09:03:49.926Z,94.34
2022-12-25T09:08:51.389Z,93.63
2022-12-25T09:13:52.782Z,93.14
2022-12-25T09:18:55.749Z,93.68
2022-12-25T09:23:57.228Z,93.61
2022-12-25T09:28:58.691Z,94.10
2022-12-25T09:34:00.033Z,94.23
2022-12-25T09:39:01.700Z,94.53
2022-12-25T09:44:07.930Z,94.45
2022-12-25T09:49:27.528Z,94.06
2022-12-25T09:54:36.502Z,94.29
2022-12-25T09:59:38.050Z,94.64
2022-12-25T10:05:05.480Z,94.80
2022-12-25T10:10:18.227Z,94.67
2022-12-25T10:15:30.236Z,95.66
2022-12-25T10:20:42.710Z,95.91
2022-12-25T10:25:44.561Z,96.52
2022-12-25T10:30:46.039Z,96.35
2022-12-25T10:35:47.591Z,96.44
2022-12-25T10:40:51.930Z,95.92
2022-12-25T10:45:53.451Z,96.87
2022-12-25T10:50:55.603Z,96.10
2022-12-25T10:56:01.466Z,96.24
2022-12-25T11:01:04.973Z,96.15
2022-12-25T11:06:23.316Z,96.70
2022-12-25T11:11:25.337Z,97.11
2022-12-25T11:16:36.055Z,97.72
2022-12-25T11:21:37.622Z,97.63
2022-12-25T11:26:48.252Z,96.58
2022-12-25T11:31:50.979Z,96.23
2022-12-25T11:36:52.583Z,96.30
2022-12-25T11:41:58.276Z,96.18
2022-12-25T11:47:03.410Z,96.58
2022-12-25T11:52:06.533Z,96.49
2022-12-25T11:57:11.332Z,96.39
2022-12-25T12:02:48.659Z,95.91
2022-12-25T12:07:55.504Z,96.41
2022-12-25T12:13:00.108Z,96.51
2022-12-25T12:18:09.201Z,96.60
2022-12-25T12:23:14.732Z,96.34
2022-12-25T12:28:29.690Z,96.47
2022-12-25T12:33:37.821Z,96.31
2022-12-25T12:38:41.099Z,96.29
2022-12-25T12:43:45.055Z,96.63
2022-12-25T12:48:48.121Z,95.98
2022-12-25T12:53:49.677Z,96.04
2022-12-25T12:58:51.283Z,95.38
2022-12-25T13:03:52.652Z,96.12
2022-12-25T13:09:03.730Z,96.45
2022-12-25T13:14:05.509Z,96.46
2022-12-25T13:19:14.673Z,96.19
2022-12-25T13:24:20.939Z,96.26
2022-12-25T13:29:29.873Z,96.63
2022-12-25T13:34:36.182Z,96.06
2022-12-25T13:39:48.697Z,96.09
2022-12-25T13:44:55.568Z,96.05
2022-12-25T13:49:57.676Z,95.67
2022-12-25T13:55:00.410Z,95.99
2022-12-25T14:00:02.352Z,95.74
2022-12-25T14:05:24.667Z,95.99
2022-12-25T14:10:28.880Z,96.10
2022-12-25T14:15:31.617Z,95.97
2022-12-25T14:20:53.986Z,96.02
2022-12-25T14:25:55.491Z,95.82
2022-12-25T14:30:57.383Z,95.53
2022-12-25T14:35:58.963Z,95.28
2022-12-25T14:41:00.462Z,95.79
2022-12-25T14:46:03.429Z,95.47
2022-12-25T14:51:15.482Z,95.64
2022-12-25T14:56:20.208Z,95.71
2022-12-25T15:01:23.349Z,95.67
2022-12-25T15:06:25.033Z,95.08
2022-12-25T15:11:26.889Z,96.16
2022-12-25T15:16:29.764Z,95.81
2022-12-25T15:21:33.032Z,95.18
2022-12-25T15:26:34.471Z,95.39
2022-12-25T15:31:37.198Z,95.16
2022-12-25T15:36:38.590Z,95.58
2022-12-25T15:41:59.237Z,95.71
2022-12-25T15:47:00.579Z,95.21
2022-12-25T15:52:03.643Z,95.13
2022-12-25T15:57:06.636Z,95.68
2022-12-25T16:02:15.314Z,95.59
2022-12-25T16:07:21.569Z,95.81
2022-12-25T16:12:23.093Z,95.40
2022-12-25T16:17:24.516Z,95.47
2022-12-25T16:22:26.045Z,95.66
2022-12-25T16:27:27.405Z,95.31
2022-12-25T16:32:29.147Z,95.53
2022-12-25T16:37:30.557Z,95.22
2022-12-25T16:42:32.049Z,95.53
2022-12-25T16:47:33.777Z,95.28
2022-12-25T16:52:35.685Z,95.34
2022-12-25T16:57:37.126Z,94.75
2022-12-25T17:02:40.283Z,94.81
2022-12-25T17:07:42.923Z,95.01
2022-12-25T17:12:45.593Z,94.62
2022-12-25T17:17:47.046Z,94.92
2022-12-25T17:22:48.796Z,94.92
2022-12-25T17:27:50.643Z,95.33
2022-12-25T17:32:52.276Z,95.29
2022-12-25T17:37:53.718Z,95.21
2022-12-25T17:42:55.571Z,95.06
2022-12-25T17:47:57.433Z,95.04
2022-12-25T17:52:58.884Z,95.00
2022-12-25T17:58:00.485Z,95.18
2022-12-25T18:03:07.251Z,95.27
2022-12-25T18:08:12.298Z,94.68
2022-12-25T18:13:13.709Z,94.63
2022-12-25T18:18:15.299Z,94.68
2022-12-25T18:23:16.765Z,94.77
2022-12-25T18:28:19.445Z,94.27
2022-12-25T18:33:21.272Z,94.48
2022-12-25T18:38:22.723Z,94.59
2022-12-25T18:43:51.453Z,94.56
2022-12-25T18:48:45.547Z,94.99
2022-12-25T18:53:47.145Z,94.91
2022-12-25T18:58:48.945Z,95.18
2022-12-25T19:03:51.005Z,94.96
2022-12-25T19:08:53.162Z,95.05
2022-12-25T19:13:54.566Z,94.65
2022-12-25T19:18:56.947Z,94.57
2022-12-25T19:23:58.371Z,94.69
2022-12-25T19:28:59.734Z,94.69
2022-12-25T19:34:01.303Z,94.85
2022-12-25T19:39:03.350Z,94.90
2022-12-25T19:44:05.534Z,94.84
2022-12-25T19:49:07.795Z,95.04
2022-12-25T19:54:14.291Z,94.93
2022-12-25T19:59:15.985Z,95.15
2022-12-25T20:04:18.213Z,94.95
2022-12-25T20:09:21.495Z,94.85
2022-12-25T20:14:23.262Z,94.68
2022-12-25T20:19:24.698Z,94.74
2022-12-25T20:24:26.129Z,94.68
2022-12-25T20:29:27.528Z,94.78
2022-12-25T20:34:29.027Z,94.83
2022-12-25T20:39:30.852Z,94.85
2022-12-25T20:44:32.274Z,94.90
2022-12-25T20:49:34.669Z,94.89
2022-12-25T20:54:36.791Z,95.02
2022-12-25T20:59:38.221Z,94.68
2022-12-25T21:04:39.723Z,94.34
2022-12-25T21:09:41.148Z,94.23
2022-12-25T21:14:42.529Z,94.15
2022-12-25T21:19:44.092Z,94.59
2022-12-25T21:24:45.451Z,94.41
2022-12-25T21:29:47.063Z,94.46
2022-12-25T21:34:48.640Z,94.45
2022-12-25T21:39:50.476Z,93.95
2022-12-25T21:44:51.852Z,94.30
2022-12-25T21:50:12.131Z,94.15
2022-12-25T21:55:13.593Z,93.95
2022-12-25T22:00:15.057Z,94.50
2022-12-25T22:05:35.219Z,94.95
2022-12-25T22:10:36.646Z,95.02
2022-12-25T22:15:56.672Z,94.89
2022-12-25T22:20:59.051Z,94.73
2022-12-25T22:26:00.431Z,94.81
2022-12-25T22:31:05.097Z,94.79
2022-12-25T22:36:07.477Z,94.70
2022-12-25T22:41:09.125Z,94.92
2022-12-25T22:46:10.569Z,94.94
2022-12-25T22:51:11.949Z,95.00
2022-12-25T22:56:14.132Z,94.65
2022-12-25T23:01:16.959Z,94.61
2022-12-25T23:06:18.396Z,94.41
2022-12-25T23:11:19.780Z,94.47
2022-12-25T23:16:21.204Z,94.51
2022-12-25T23:21:43.506Z,94.63
2022-12-25T23:26:44.859Z,94.59
2022-12-25T23:31:53.391Z,94.68
2022-12-25T23:36:54.786Z,94.42
2022-12-25T23:41:56.174Z,94.18
2022-12-25T23:46:57.651Z,94.61
2022-12-25T23:51:59.087Z,94.73
2022-12-25T23:57:00.864Z,94.63
